sensor_id;sensor_type;location;lat;lon;timestamp;pressure;altitude;pressure_sealevel;temperature;humidity
51321;BME280;38732;49.556;6.286;2023-02-17T00:01:30;100452.06;;;9.58;100.00
51321;BME280;38732;49.556;6.286;2023-02-17T00:04:00;100455.97;;;9.83;100.00
51321;BME280;38732;49.556;6.286;2023-02-17T00:06:29;100452.72;;;9.93;100.00
51321;BME280;38732;49.556;6.286;2023-02-17T00:08:58;100447.28;;;9.78;100.00
51321;BME280;38732;49.556;6.286;2023-02-17T00:11:26;100448.53;;;10.47;100.00
51321;BME280;38732;49.556;6.286;2023-02-17T00:13:55;100445.75;;;9.87;100.00
51321;BME280;38732;49.556;6.286;2023-02-17T00:16:25;100447.91;;;9.23;100.00
51321;BME280;38732;49.556;6.286;2023-02-17T00:18:56;100451.38;;;9.25;100.00
51321;BME280;38732;49.556;6.286;2023-02-17T00:21:27;100446.50;;;9.82;100.00
51321;BME280;38732;49.556;6.286;2023-02-17T00:23:57;100430.81;;;10.18;100.00
51321;BME280;38732;49.556;6.286;2023-02-17T00:26:25;100444.09;;;9.06;100.00
51321;BME280;38732;49.556;6.286;2023-02-17T00:28:53;100436.69;;;9.20;100.00
51321;BME280;38732;49.556;6.286;2023-02-17T00:31:22;100440.22;;;9.25;100.00
51321;BME280;38732;49.556;6.286;2023-02-17T00:33:53;100434.00;;;9.58;100.00
51321;BME280;38732;49.556;6.286;2023-02-17T00:36:22;100429.91;;;9.25;100.00
51321;BME280;38732;49.556;6.286;2023-02-17T00:38:53;100429.81;;;9.63;100.00
51321;BME280;38732;49.556;6.286;2023-02-17T00:41:22;100424.06;;;9.78;100.00
51321;BME280;38732;49.556;6.286;2023-02-17T00:43:51;100427.78;;;9.92;100.00
51321;BME280;38732;49.556;6.286;2023-02-17T00:46:20;100429.97;;;10.19;100.00
51321;BME280;38732;49.556;6.286;2023-02-17T00:48:48;100439.44;;;10.20;100.00
51321;BME280;38732;49.556;6.286;2023-02-17T00:51:16;100432.25;;;11.09;100.00
51321;BME280;38732;49.556;6.286;2023-02-17T00:53:45;100431.03;;;11.49;100.00
51321;BME280;38732;49.556;6.286;2023-02-17T00:56:14;100439.78;;;9.90;100.00
51321;BME280;38732;49.556;6.286;2023-02-17T00:58:42;100425.66;;;11.34;100.00
51321;BME280;38732;49.556;6.286;2023-02-17T01:01:11;100423.53;;;11.74;100.00
51321;BME280;38732;49.556;6.286;2023-02-17T01:03:40;100421.03;;;11.81;100.00
51321;BME280;38732;49.556;6.286;2023-02-17T01:06:11;100418.81;;;12.17;100.00
51321;BME280;38732;49.556;6.286;2023-02-17T01:08:43;100425.56;;;12.02;100.00
51321;BME280;38732;49.556;6.286;2023-02-17T01:11:29;100424.59;;;11.18;100.00
51321;BME280;38732;49.556;6.286;2023-02-17T01:13:59;100424.63;;;11.19;100.00
51321;BME280;38732;49.556;6.286;2023-02-17T01:16:37;100430.41;;;11.01;100.00
51321;BME280;38732;49.556;6.286;2023-02-17T01:19:11;100423.94;;;12.11;100.00
51321;BME280;38732;49.556;6.286;2023-02-17T01:21:40;100418.34;;;11.75;100.00
51321;BME280;38732;49.556;6.286;2023-02-17T01:24:10;100432.88;;;10.38;100.00
51321;BME280;38732;49.556;6.286;2023-02-17T01:26:39;100426.63;;;10.76;100.00
51321;BME280;38732;49.556;6.286;2023-02-17T01:29:07;100415.63;;;11.63;100.00
51321;BME280;38732;49.556;6.286;2023-02-17T01:31:36;100423.09;;;10.71;100.00
51321;BME280;38732;49.556;6.286;2023-02-17T01:34:04;100417.31;;;10.31;100.00
51321;BME280;38732;49.556;6.286;2023-02-17T01:36:32;100413.41;;;11.19;100.00
51321;BME280;38732;49.556;6.286;2023-02-17T01:39:00;100420.00;;;9.89;100.00
51321;BME280;38732;49.556;6.286;2023-02-17T01:41:29;100408.44;;;10.69;100.00
51321;BME280;38732;49.556;6.286;2023-02-17T01:44:08;100406.91;;;10.85;100.00
51321;BME280;38732;49.556;6.286;2023-02-17T01:46:38;100404.09;;;10.68;100.00
51321;BME280;38732;49.556;6.286;2023-02-17T01:49:14;100404.28;;;10.27;100.00
51321;BME280;38732;49.556;6.286;2023-02-17T01:51:56;100403.53;;;10.90;100.00
51321;BME280;38732;49.556;6.286;2023-02-17T01:54:29;100400.06;;;10.87;100.00
51321;BME280;38732;49.556;6.286;2023-02-17T01:57:00;100399.44;;;10.44;100.00
51321;BME280;38732;49.556;6.286;2023-02-17T01:59:29;100386.25;;;10.85;100.00
51321;BME280;38732;49.556;6.286;2023-02-17T02:01:59;100381.38;;;11.08;100.00
51321;BME280;38732;49.556;6.286;2023-02-17T02:04:31;100376.69;;;10.23;100.00
51321;BME280;38732;49.556;6.286;2023-02-17T02:07:02;100381.78;;;10.18;100.00
51321;BME280;38732;49.556;6.286;2023-02-17T02:09:43;100376.56;;;10.13;100.00
51321;BME280;38732;49.556;6.286;2023-02-17T02:12:39;100380.34;;;10.34;100.00
51321;BME280;38732;49.556;6.286;2023-02-17T02:23:58;100361.00;;;10.09;100.00
51321;BME280;38732;49.556;6.286;2023-02-17T02:29:59;100357.47;;;9.55;100.00
51321;BME280;38732;49.556;6.286;2023-02-17T02:32:46;100364.09;;;8.98;100.00
51321;BME280;38732;49.556;6.286;2023-02-17T02:41:01;100347.72;;;8.95;100.00
51321;BME280;38732;49.556;6.286;2023-02-17T02:43:31;100334.31;;;9.57;100.00
51321;BME280;38732;49.556;6.286;2023-02-17T02:45:59;100331.22;;;9.29;100.00
51321;BME280;38732;49.556;6.286;2023-02-17T02:48:27;100331.13;;;9.71;100.00
51321;BME280;38732;49.556;6.286;2023-02-17T02:51:04;100328.47;;;10.20;100.00
51321;BME280;38732;49.556;6.286;2023-02-17T02:57:03;100329.38;;;9.23;100.00
51321;BME280;38732;49.556;6.286;2023-02-17T03:02:28;100329.75;;;9.92;100.00
51321;BME280;38732;49.556;6.286;2023-02-17T03:05:04;100333.34;;;10.03;100.00
51321;BME280;38732;49.556;6.286;2023-02-17T03:07:49;100331.50;;;9.46;100.00
51321;BME280;38732;49.556;6.286;2023-02-17T03:10:20;100326.75;;;9.67;100.00
51321;BME280;38732;49.556;6.286;2023-02-17T03:12:49;100325.22;;;9.30;100.00
51321;BME280;38732;49.556;6.286;2023-02-17T03:15:19;100322.22;;;9.54;100.00
51321;BME280;38732;49.556;6.286;2023-02-17T03:17:50;100329.88;;;10.00;100.00
51321;BME280;38732;49.556;6.286;2023-02-17T03:20:18;100327.25;;;9.98;100.00
51321;BME280;38732;49.556;6.286;2023-02-17T03:22:47;100321.06;;;10.39;100.00
51321;BME280;38732;49.556;6.286;2023-02-17T03:25:15;100326.44;;;9.49;100.00
51321;BME280;38732;49.556;6.286;2023-02-17T03:27:43;100332.09;;;9.78;100.00
51321;BME280;38732;49.556;6.286;2023-02-17T03:30:12;100332.09;;;10.28;100.00
51321;BME280;38732;49.556;6.286;2023-02-17T03:32:40;100323.50;;;9.78;100.00
51321;BME280;38732;49.556;6.286;2023-02-17T03:35:09;100316.19;;;10.04;100.00
51321;BME280;38732;49.556;6.286;2023-02-17T03:37:37;100321.25;;;9.98;100.00
51321;BME280;38732;49.556;6.286;2023-02-17T03:40:07;100320.06;;;10.30;100.00
51321;BME280;38732;49.556;6.286;2023-02-17T03:42:35;100326.91;;;9.77;100.00
51321;BME280;38732;49.556;6.286;2023-02-17T03:45:04;100323.59;;;10.37;100.00
51321;BME280;38732;49.556;6.286;2023-02-17T03:47:32;100330.81;;;9.55;100.00
51321;BME280;38732;49.556;6.286;2023-02-17T03:50:00;100328.53;;;10.81;100.00
51321;BME280;38732;49.556;6.286;2023-02-17T03:52:29;100326.06;;;9.76;100.00
51321;BME280;38732;49.556;6.286;2023-02-17T03:54:57;100333.81;;;9.31;100.00
51321;BME280;38732;49.556;6.286;2023-02-17T03:57:26;100338.19;;;9.83;100.00
51321;BME280;38732;49.556;6.286;2023-02-17T03:59:54;100339.66;;;10.19;100.00
51321;BME280;38732;49.556;6.286;2023-02-17T04:02:22;100341.84;;;10.49;100.00
51321;BME280;38732;49.556;6.286;2023-02-17T04:04:50;100344.19;;;9.82;100.00
51321;BME280;38732;49.556;6.286;2023-02-17T04:07:18;100344.78;;;10.18;100.00
51321;BME280;38732;49.556;6.286;2023-02-17T04:09:47;100347.59;;;10.28;100.00
51321;BME280;38732;49.556;6.286;2023-02-17T04:12:15;100339.41;;;10.58;100.00
51321;BME280;38732;49.556;6.286;2023-02-17T04:14:43;100349.31;;;9.81;100.00
51321;BME280;38732;49.556;6.286;2023-02-17T04:17:11;100347.34;;;9.64;100.00
51321;BME280;38732;49.556;6.286;2023-02-17T04:19:39;100360.25;;;10.16;100.00
51321;BME280;38732;49.556;6.286;2023-02-17T04:22:08;100356.88;;;9.68;100.00
51321;BME280;38732;49.556;6.286;2023-02-17T04:24:36;100356.25;;;10.33;100.00
51321;BME280;38732;49.556;6.286;2023-02-17T04:27:05;100358.53;;;10.18;100.00
51321;BME280;38732;49.556;6.286;2023-02-17T04:29:33;100367.06;;;10.11;100.00
51321;BME280;38732;49.556;6.286;2023-02-17T04:32:01;100373.03;;;10.08;100.00
51321;BME280;38732;49.556;6.286;2023-02-17T04:34:30;100363.13;;;9.83;100.00
51321;BME280;38732;49.556;6.286;2023-02-17T04:36:58;100365.94;;;10.48;100.00
51321;BME280;38732;49.556;6.286;2023-02-17T04:39:26;100380.19;;;9.75;100.00
51321;BME280;38732;49.556;6.286;2023-02-17T04:41:54;100373.41;;;10.30;100.00
51321;BME280;38732;49.556;6.286;2023-02-17T04:44:23;100374.41;;;10.40;100.00
51321;BME280;38732;49.556;6.286;2023-02-17T04:46:51;100373.59;;;9.92;100.00
51321;BME280;38732;49.556;6.286;2023-02-17T04:49:19;100364.63;;;11.50;100.00
51321;BME280;38732;49.556;6.286;2023-02-17T04:51:47;100379.28;;;10.79;100.00
51321;BME280;38732;49.556;6.286;2023-02-17T04:54:15;100373.03;;;11.30;100.00
51321;BME280;38732;49.556;6.286;2023-02-17T04:56:44;100382.94;;;10.95;100.00
51321;BME280;38732;49.556;6.286;2023-02-17T04:59:12;100368.72;;;12.12;100.00
51321;BME280;38732;49.556;6.286;2023-02-17T05:01:40;100370.72;;;12.49;100.00
51321;BME280;38732;49.556;6.286;2023-02-17T05:04:08;100393.56;;;10.54;100.00
51321;BME280;38732;49.556;6.286;2023-02-17T05:06:36;100384.25;;;10.65;100.00
51321;BME280;38732;49.556;6.286;2023-02-17T05:09:04;100368.66;;;11.25;100.00
51321;BME280;38732;49.556;6.286;2023-02-17T05:11:33;100365.63;;;11.61;100.00
51321;BME280;38732;49.556;6.286;2023-02-17T05:14:01;100366.94;;;10.58;100.00
51321;BME280;38732;49.556;6.286;2023-02-17T05:16:29;100371.31;;;9.59;100.00
51321;BME280;38732;49.556;6.286;2023-02-17T05:18:57;100355.69;;;11.18;100.00
51321;BME280;38732;49.556;6.286;2023-02-17T05:21:25;100343.13;;;10.80;100.00
51321;BME280;38732;49.556;6.286;2023-02-17T05:23:54;100366.19;;;10.12;100.00
51321;BME280;38732;49.556;6.286;2023-02-17T05:26:22;100369.44;;;10.00;100.00
51321;BME280;38732;49.556;6.286;2023-02-17T05:28:50;100362.44;;;9.91;100.00
51321;BME280;38732;49.556;6.286;2023-02-17T05:31:18;100366.38;;;9.72;100.00
51321;BME280;38732;49.556;6.286;2023-02-17T05:33:47;100356.03;;;9.69;100.00
51321;BME280;38732;49.556;6.286;2023-02-17T05:36:15;100360.25;;;10.16;100.00
51321;BME280;38732;49.556;6.286;2023-02-17T05:38:43;100342.56;;;10.41;100.00
51321;BME280;38732;49.556;6.286;2023-02-17T05:41:11;100348.34;;;10.24;100.00
51321;BME280;38732;49.556;6.286;2023-02-17T05:43:39;100344.00;;;10.22;100.00
51321;BME280;38732;49.556;6.286;2023-02-17T05:46:08;100350.81;;;10.74;100.00
51321;BME280;38732;49.556;6.286;2023-02-17T05:48:36;100349.91;;;10.14;100.00
51321;BME280;38732;49.556;6.286;2023-02-17T05:51:05;100342.09;;;10.68;100.00
51321;BME280;38732;49.556;6.286;2023-02-17T05:53:33;100361.53;;;9.89;100.00
51321;BME280;38732;49.556;6.286;2023-02-17T05:56:01;100367.19;;;9.68;100.00
51321;BME280;38732;49.556;6.286;2023-02-17T05:58:29;100366.78;;;10.47;100.00
51321;BME280;38732;49.556;6.286;2023-02-17T06:00:58;100372.69;;;10.39;100.00
51321;BME280;38732;49.556;6.286;2023-02-17T06:03:26;100366.84;;;10.52;100.00
51321;BME280;38732;49.556;6.286;2023-02-17T06:05:54;100365.69;;;10.33;100.00
51321;BME280;38732;49.556;6.286;2023-02-17T06:08:22;100373.91;;;10.10;100.00
51321;BME280;38732;49.556;6.286;2023-02-17T06:10:52;100382.28;;;10.47;100.00
51321;BME280;38732;49.556;6.286;2023-02-17T06:13:20;100394.53;;;10.10;100.00
51321;BME280;38732;49.556;6.286;2023-02-17T06:15:48;100402.66;;;10.29;100.00
51321;BME280;38732;49.556;6.286;2023-02-17T06:18:16;100400.56;;;10.61;100.00
51321;BME280;38732;49.556;6.286;2023-02-17T06:20:46;100407.31;;;10.53;100.00
51321;BME280;38732;49.556;6.286;2023-02-17T06:23:14;100398.19;;;10.76;100.00
51321;BME280;38732;49.556;6.286;2023-02-17T06:25:43;100409.69;;;10.39;100.00
51321;BME280;38732;49.556;6.286;2023-02-17T06:28:11;100407.00;;;11.62;100.00
51321;BME280;38732;49.556;6.286;2023-02-17T06:30:39;100410.69;;;11.81;100.00
51321;BME280;38732;49.556;6.286;2023-02-17T06:33:08;100403.44;;;11.50;100.00
51321;BME280;38732;49.556;6.286;2023-02-17T06:35:36;100413.13;;;10.97;100.00
51321;BME280;38732;49.556;6.286;2023-02-17T06:38:04;100409.41;;;11.45;100.00
51321;BME280;38732;49.556;6.286;2023-02-17T06:40:33;100416.00;;;11.91;100.00
51321;BME280;38732;49.556;6.286;2023-02-17T06:43:01;100416.72;;;11.10;100.00
51321;BME280;38732;49.556;6.286;2023-02-17T06:45:29;100437.38;;;10.49;100.00
51321;BME280;38732;49.556;6.286;2023-02-17T06:47:57;100433.22;;;10.57;100.00
51321;BME280;38732;49.556;6.286;2023-02-17T06:50:25;100426.34;;;10.60;100.00
51321;BME280;38732;49.556;6.286;2023-02-17T06:52:54;100427.47;;;10.24;100.00
51321;BME280;38732;49.556;6.286;2023-02-17T06:55:22;100424.25;;;10.35;100.00
51321;BME280;38732;49.556;6.286;2023-02-17T06:57:50;100417.91;;;10.18;100.00
51321;BME280;38732;49.556;6.286;2023-02-17T07:00:19;100422.28;;;10.22;100.00
51321;BME280;38732;49.556;6.286;2023-02-17T07:02:47;100425.16;;;9.90;100.00
51321;BME280;38732;49.556;6.286;2023-02-17T07:05:16;100427.06;;;9.99;100.00
51321;BME280;38732;49.556;6.286;2023-02-17T07:07:44;100418.50;;;10.03;100.00
51321;BME280;38732;49.556;6.286;2023-02-17T07:10:12;100414.34;;;10.62;100.00
51321;BME280;38732;49.556;6.286;2023-02-17T07:12:40;100416.31;;;9.76;100.00
51321;BME280;38732;49.556;6.286;2023-02-17T07:15:09;100406.19;;;9.87;100.00
51321;BME280;38732;49.556;6.286;2023-02-17T07:17:37;100403.50;;;10.29;100.00
51321;BME280;38732;49.556;6.286;2023-02-17T07:20:05;100430.38;;;10.42;100.00
51321;BME280;38732;49.556;6.286;2023-02-17T07:22:34;100435.78;;;10.07;100.00
51321;BME280;38732;49.556;6.286;2023-02-17T07:25:03;100427.34;;;10.66;100.00
51321;BME280;38732;49.556;6.286;2023-02-17T07:27:35;100437.44;;;10.51;100.00
51321;BME280;38732;49.556;6.286;2023-02-17T07:30:04;100436.50;;;9.99;100.00
51321;BME280;38732;49.556;6.286;2023-02-17T07:32:33;100425.41;;;10.04;100.00
51321;BME280;38732;49.556;6.286;2023-02-17T07:35:01;100443.34;;;10.44;100.00
51321;BME280;38732;49.556;6.286;2023-02-17T07:37:30;100455.75;;;10.16;100.00
51321;BME280;38732;49.556;6.286;2023-02-17T07:39:58;100444.56;;;10.67;100.00
51321;BME280;38732;49.556;6.286;2023-02-17T07:42:26;100445.28;;;10.10;100.00
51321;BME280;38732;49.556;6.286;2023-02-17T07:44:55;100453.97;;;10.13;100.00
51321;BME280;38732;49.556;6.286;2023-02-17T07:47:23;100448.50;;;10.44;100.00
51321;BME280;38732;49.556;6.286;2023-02-17T07:49:51;100457.16;;;10.47;100.00
51321;BME280;38732;49.556;6.286;2023-02-17T07:52:20;100460.50;;;9.94;100.00
51321;BME280;38732;49.556;6.286;2023-02-17T07:54:48;100458.88;;;10.47;100.00
51321;BME280;38732;49.556;6.286;2023-02-17T07:57:17;100459.06;;;10.09;100.00
51321;BME280;38732;49.556;6.286;2023-02-17T07:59:45;100459.06;;;10.09;100.00
51321;BME280;38732;49.556;6.286;2023-02-17T08:02:14;100461.38;;;10.42;100.00
51321;BME280;38732;49.556;6.286;2023-02-17T08:04:42;100456.56;;;10.15;100.00
51321;BME280;38732;49.556;6.286;2023-02-17T08:07:10;100454.19;;;10.27;100.00
51321;BME280;38732;49.556;6.286;2023-02-17T08:09:38;100457.78;;;9.87;100.00
51321;BME280;38732;49.556;6.286;2023-02-17T08:12:14;100453.97;;;9.66;100.00
51321;BME280;38732;49.556;6.286;2023-02-17T08:14:42;100449.47;;;10.03;100.00
51321;BME280;38732;49.556;6.286;2023-02-17T08:17:10;100445.97;;;10.00;100.00
51321;BME280;38732;49.556;6.286;2023-02-17T08:19:39;100456.69;;;10.23;100.00
51321;BME280;38732;49.556;6.286;2023-02-17T08:22:07;100446.84;;;10.00;100.00
51321;BME280;38732;49.556;6.286;2023-02-17T08:24:35;100449.97;;;10.29;100.00
51321;BME280;38732;49.556;6.286;2023-02-17T08:27:03;100454.28;;;10.30;100.00
51321;BME280;38732;49.556;6.286;2023-02-17T08:29:31;100447.69;;;10.01;100.00
51321;BME280;38732;49.556;6.286;2023-02-17T08:32:00;100451.44;;;10.17;100.00
51321;BME280;38732;49.556;6.286;2023-02-17T08:34:28;100451.72;;;9.85;100.00
51321;BME280;38732;49.556;6.286;2023-02-17T08:36:56;100453.63;;;9.93;100.00
51321;BME280;38732;49.556;6.286;2023-02-17T08:39:24;100455.75;;;10.16;100.00
51321;BME280;38732;49.556;6.286;2023-02-17T08:41:54;100460.50;;;9.94;100.00
51321;BME280;38732;49.556;6.286;2023-02-17T08:44:23;100463.19;;;10.01;100.00
51321;BME280;38732;49.556;6.286;2023-02-17T08:46:51;100461.03;;;10.25;100.00
51321;BME280;38732;49.556;6.286;2023-02-17T08:49:23;100457.06;;;10.41;100.00
51321;BME280;38732;49.556;6.286;2023-02-17T08:51:52;100461.03;;;10.25;100.00
51321;BME280;38732;49.556;6.286;2023-02-17T08:54:20;100458.25;;;10.11;100.00
51321;BME280;38732;49.556;6.286;2023-02-17T08:56:49;100450.34;;;10.52;100.00
51321;BME280;38732;49.556;6.286;2023-02-17T08:59:17;100452.41;;;10.73;100.00
51321;BME280;38732;49.556;6.286;2023-02-17T09:01:45;100456.47;;;10.10;100.00
51321;BME280;38732;49.556;6.286;2023-02-17T09:04:16;100456.63;;;10.70;100.00
51321;BME280;38732;49.556;6.286;2023-02-17T09:06:48;100466.22;;;10.77;100.00
51321;BME280;38732;49.556;6.286;2023-02-17T09:09:19;100463.09;;;10.42;100.00
51321;BME280;38732;49.556;6.286;2023-02-17T09:11:48;100459.84;;;10.53;100.00
51321;BME280;38732;49.556;6.286;2023-02-17T09:14:16;100456.19;;;10.97;100.00
51321;BME280;38732;49.556;6.286;2023-02-17T09:16:44;100462.91;;;10.86;100.00
51321;BME280;38732;49.556;6.286;2023-02-17T09:19:12;100468.81;;;10.77;100.00
51321;BME280;38732;49.556;6.286;2023-02-17T09:21:41;100467.25;;;10.88;100.00
51321;BME280;38732;49.556;6.286;2023-02-17T09:24:09;100470.28;;;10.61;100.00
51321;BME280;38732;49.556;6.286;2023-02-17T09:26:37;100477.16;;;10.59;100.00
51321;BME280;38732;49.556;6.286;2023-02-17T09:29:06;100481.97;;;10.41;100.00
51321;BME280;38732;49.556;6.286;2023-02-17T09:31:35;100493.13;;;10.90;100.00
51321;BME280;38732;49.556;6.286;2023-02-17T09:34:04;100493.91;;;10.84;100.00
51321;BME280;38732;49.556;6.286;2023-02-17T09:36:38;100489.09;;;11.09;100.00
51321;BME280;38732;49.556;6.286;2023-02-17T09:39:07;100497.47;;;10.92;100.00
51321;BME280;38732;49.556;6.286;2023-02-17T09:41:44;100489.75;;;10.94;100.00
51321;BME280;38732;49.556;6.286;2023-02-17T09:44:25;100495.22;;;10.59;100.00
51321;BME280;38732;49.556;6.286;2023-02-17T09:49:25;100489.88;;;11.05;100.00
51321;BME280;38732;49.556;6.286;2023-02-17T09:57:27;100498.84;;;11.30;100.00
51321;BME280;38732;49.556;6.286;2023-02-17T10:00:09;100499.44;;;11.10;100.00
51321;BME280;38732;49.556;6.286;2023-02-17T10:03:26;100510.81;;;11.21;100.00
51321;BME280;38732;49.556;6.286;2023-02-17T10:11:41;100511.16;;;10.88;100.00
51321;BME280;38732;49.556;6.286;2023-02-17T10:14:18;100505.81;;;11.35;100.00
51321;BME280;38732;49.556;6.286;2023-02-17T10:16:53;100515.84;;;11.11;100.00
51321;BME280;38732;49.556;6.286;2023-02-17T10:19:27;100518.13;;;11.52;100.00
51321;BME280;38732;49.556;6.286;2023-02-17T10:22:10;100518.34;;;11.06;100.00
51321;BME280;38732;49.556;6.286;2023-02-17T10:24:40;100510.00;;;11.26;100.00
51321;BME280;38732;49.556;6.286;2023-02-17T10:32:21;100520.25;;;11.19;100.00
51321;BME280;38732;49.556;6.286;2023-02-17T10:40:24;100511.50;;;11.75;100.00
51321;BME280;38732;49.556;6.286;2023-02-17T10:42:57;100529.31;;;11.51;100.00
51321;BME280;38732;49.556;6.286;2023-02-17T10:45:35;100526.00;;;11.62;100.00
51321;BME280;38732;49.556;6.286;2023-02-17T10:48:08;100526.72;;;11.49;100.00
51321;BME280;38732;49.556;6.286;2023-02-17T10:50:41;100532.09;;;11.66;100.00
51321;BME280;38732;49.556;6.286;2023-02-17T10:53:15;100534.34;;;11.38;100.00
51321;BME280;38732;49.556;6.286;2023-02-17T10:55:58;100528.25;;;11.38;100.00
51321;BME280;38732;49.556;6.286;2023-02-17T11:01:06;100520.44;;;12.00;100.00
51321;BME280;38732;49.556;6.286;2023-02-17T11:03:35;100527.63;;;11.54;100.00
51321;BME280;38732;49.556;6.286;2023-02-17T11:06:04;100514.19;;;11.81;100.00
51321;BME280;38732;49.556;6.286;2023-02-17T11:08:37;100507.38;;;11.88;100.00
51321;BME280;38732;49.556;6.286;2023-02-17T11:11:13;100503.34;;;11.41;100.00
51321;BME280;38732;49.556;6.286;2023-02-17T11:16:31;100510.44;;;11.58;100.00
51321;BME280;38732;49.556;6.286;2023-02-17T11:19:01;100513.06;;;11.62;100.00
51321;BME280;38732;49.556;6.286;2023-02-17T11:21:30;100507.22;;;11.76;100.00
51321;BME280;38732;49.556;6.286;2023-02-17T11:24:01;100500.56;;;11.95;100.00
51321;BME280;38732;49.556;6.286;2023-02-17T11:26:34;100502.09;;;11.82;100.00
51321;BME280;38732;49.556;6.286;2023-02-17T11:29:16;100490.50;;;12.21;100.00
51321;BME280;38732;49.556;6.286;2023-02-17T11:32:05;100496.81;;;11.73;100.00
51321;BME280;38732;49.556;6.286;2023-02-17T11:34:37;100491.50;;;11.62;100.00
51321;BME280;38732;49.556;6.286;2023-02-17T11:39:38;100492.03;;;12.03;100.00
51321;BME280;38732;49.556;6.286;2023-02-17T11:42:20;100498.63;;;11.78;100.00
51321;BME280;38732;49.556;6.286;2023-02-17T11:44:50;100487.69;;;12.01;100.00
51321;BME280;38732;49.556;6.286;2023-02-17T11:47:41;100496.44;;;12.11;100.00
51321;BME280;38732;49.556;6.286;2023-02-17T11:50:22;100489.53;;;12.14;100.00
51321;BME280;38732;49.556;6.286;2023-02-17T11:58:44;100478.94;;;11.90;100.00
51321;BME280;38732;49.556;6.286;2023-02-17T12:04:24;100473.06;;;12.07;100.00
51321;BME280;38732;49.556;6.286;2023-02-17T12:07:32;100479.84;;;11.95;100.00
51321;BME280;38732;49.556;6.286;2023-02-17T12:13:02;100487.66;;;11.99;100.00
51321;BME280;38732;49.556;6.286;2023-02-17T12:18:38;100481.16;;;12.38;100.00
51321;BME280;38732;49.556;6.286;2023-02-17T12:21:23;100481.63;;;12.00;100.00
51321;BME280;38732;49.556;6.286;2023-02-17T12:26:56;100482.53;;;13.12;100.00
51321;BME280;38732;49.556;6.286;2023-02-17T12:29:57;100475.13;;;12.41;100.00
51321;BME280;38732;49.556;6.286;2023-02-17T12:32:55;100494.50;;;11.94;100.00
51321;BME280;38732;49.556;6.286;2023-02-17T12:35:48;100489.34;;;11.94;100.00
51321;BME280;38732;49.556;6.286;2023-02-17T12:38:25;100471.72;;;12.46;100.00
51321;BME280;38732;49.556;6.286;2023-02-17T12:40:59;100490.59;;;12.33;100.00
51321;BME280;38732;49.556;6.286;2023-02-17T12:43:36;100486.16;;;12.18;100.00
51321;BME280;38732;49.556;6.286;2023-02-17T12:46:10;100492.16;;;12.17;100.00
51321;BME280;38732;49.556;6.286;2023-02-17T12:48:44;100501.28;;;11.84;100.00
51321;BME280;38732;49.556;6.286;2023-02-17T12:54:02;100489.72;;;12.31;100.00
51321;BME280;38732;49.556;6.286;2023-02-17T12:56:48;100490.03;;;12.69;100.00
51321;BME280;38732;49.556;6.286;2023-02-17T12:59:31;100488.66;;;12.12;100.00
51321;BME280;38732;49.556;6.286;2023-02-17T13:02:12;100496.06;;;11.81;100.00
51321;BME280;38732;49.556;6.286;2023-02-17T13:04:43;100495.97;;;12.55;100.00
51321;BME280;38732;49.556;6.286;2023-02-17T13:07:22;100494.97;;;12.40;100.00
51321;BME280;38732;49.556;6.286;2023-02-17T13:09:54;100485.34;;;12.27;100.00
51321;BME280;38732;49.556;6.286;2023-02-17T13:14:56;100497.38;;;12.22;100.00
51321;BME280;38732;49.556;6.286;2023-02-17T13:20:19;100493.72;;;11.98;100.00
51321;BME280;38732;49.556;6.286;2023-02-17T13:23:02;100497.81;;;11.85;100.00
51321;BME280;38732;49.556;6.286;2023-02-17T13:25:33;100503.00;;;11.84;100.00
51321;BME280;38732;49.556;6.286;2023-02-17T13:28:30;100494.09;;;11.62;100.00
51321;BME280;38732;49.556;6.286;2023-02-17T13:31:12;100478.44;;;12.27;100.00
51321;BME280;38732;49.556;6.286;2023-02-17T13:36:33;100471.53;;;12.23;100.00
51321;BME280;38732;49.556;6.286;2023-02-17T13:41:56;100469.94;;;11.60;100.00
51321;BME280;38732;49.556;6.286;2023-02-17T13:44:33;100466.25;;;11.39;100.00
51321;BME280;38732;49.556;6.286;2023-02-17T13:47:10;100469.09;;;11.62;100.00
51321;BME280;38732;49.556;6.286;2023-02-17T13:49:39;100461.19;;;12.28;100.00
51321;BME280;38732;49.556;6.286;2023-02-17T13:52:15;100464.31;;;11.93;100.00
51321;BME280;38732;49.556;6.286;2023-02-17T13:54:59;100460.63;;;12.61;100.00
51321;BME280;38732;49.556;6.286;2023-02-17T13:57:31;100454.78;;;11.89;100.00
51321;BME280;38732;49.556;6.286;2023-02-17T14:05:26;100449.41;;;11.75;100.00
51321;BME280;38732;49.556;6.286;2023-02-17T14:08:06;100452.88;;;11.77;100.00
51321;BME280;38732;49.556;6.286;2023-02-17T14:10:39;100448.53;;;12.62;100.00
51321;BME280;38732;49.556;6.286;2023-02-17T14:13:09;100438.91;;;12.44;100.00
51321;BME280;38732;49.556;6.286;2023-02-17T14:18:15;100434.78;;;12.70;100.00
51321;BME280;38732;49.556;6.286;2023-02-17T14:21:09;100432.16;;;12.66;100.00
51321;BME280;38732;49.556;6.286;2023-02-17T14:23:43;100427.94;;;11.81;100.00
51321;BME280;38732;49.556;6.286;2023-02-17T14:26:21;100426.47;;;12.06;100.00
51321;BME280;38732;49.556;6.286;2023-02-17T14:28:56;100426.91;;;11.66;100.00
51321;BME280;38732;49.556;6.286;2023-02-17T14:31:26;100430.53;;;11.85;100.00
51321;BME280;38732;49.556;6.286;2023-02-17T14:34:00;100425.25;;;11.73;100.00
51321;BME280;38732;49.556;6.286;2023-02-17T14:36:31;100423.03;;;12.07;100.00
51321;BME280;38732;49.556;6.286;2023-02-17T14:39:05;100431.81;;;12.24;100.00
51321;BME280;38732;49.556;6.286;2023-02-17T14:41:34;100435.38;;;12.36;100.00